Terminal Aerodrome Forecast
Issued by NWS Lake Charles, LA

Home | Current Version | Previous Version | Text Only | Print | Product List | Glossary On
Versions: 1 2 3 4 5 6 7 8 9 10 11 12 13 14 15 16 17
000
FTUS44 KLCH 250500
TAFLFT
TAF
KLFT 250520Z 2506/2606 00000KT P6SM SKC
     FM251400 VRB03KT P6SM SCT020
     FM251700 22006KT P6SM VCTS SCT040CB
     FM260100 22003KT P6SM SKC=

USA.gov is the U.S. government's official web portal to all federal, state and local government web resources and services.